createdAt,value
2016-02-12T00:00:17.316Z,956.81
2016-02-12T00:01:17.318Z,956.85
2016-02-12T00:02:17.304Z,956.85
2016-02-12T00:03:17.307Z,956.87
2016-02-12T00:04:17.310Z,956.86
2016-02-12T00:05:17.298Z,956.88
2016-02-12T00:06:17.301Z,956.85
2016-02-12T00:07:17.303Z,956.87
2016-02-12T00:08:17.306Z,956.87
2016-02-12T00:09:17.310Z,956.85
2016-02-12T00:10:17.296Z,956.85
2016-02-12T00:11:17.293Z,956.85
2016-02-12T00:12:17.295Z,956.84
2016-02-12T00:13:17.299Z,956.86
2016-02-12T00:14:17.286Z,956.83
2016-02-12T00:15:17.289Z,956.87
2016-02-12T00:16:17.291Z,956.85
2016-02-12T00:17:17.279Z,956.86
2016-02-12T00:18:17.281Z,956.87
2016-02-12T00:19:17.284Z,956.79
2016-02-12T00:20:17.272Z,956.82
2016-02-12T00:21:17.274Z,956.76
2016-02-12T00:22:17.277Z,956.74
2016-02-12T00:23:17.279Z,956.8
2016-02-12T00:24:17.272Z,956.77
2016-02-12T00:25:17.248Z,956.78
2016-02-12T00:26:17.238Z,956.71
2016-02-12T00:27:17.213Z,956.79
2016-02-12T00:28:17.216Z,956.78
2016-02-12T00:29:17.197Z,956.81
2016-02-12T00:30:17.196Z,956.8
2016-02-12T00:31:17.194Z,956.79
2016-02-12T00:32:17.178Z,956.77
2016-02-12T00:33:17.191Z,956.75
2016-02-12T00:34:17.178Z,956.75
2016-02-12T00:35:17.179Z,956.71
2016-02-12T00:36:17.164Z,956.74
2016-02-12T00:37:17.169Z,956.68
2016-02-12T00:38:17.170Z,956.7
2016-02-12T00:39:17.156Z,956.74
2016-02-12T00:40:17.157Z,956.7
2016-02-12T00:41:17.160Z,956.67
2016-02-12T00:42:17.161Z,956.67
2016-02-12T00:43:17.146Z,956.67
2016-02-12T00:44:17.148Z,956.7
2016-02-12T00:45:17.151Z,956.63
2016-02-12T00:46:17.154Z,956.59
2016-02-12T00:47:17.140Z,956.61
2016-02-12T00:48:17.142Z,956.61
2016-02-12T00:49:17.145Z,956.65
2016-02-12T00:50:17.132Z,956.64
2016-02-12T00:51:17.135Z,956.65
2016-02-12T00:52:17.137Z,956.64
2016-02-12T00:53:17.140Z,956.62
2016-02-12T00:54:17.129Z,956.64
2016-02-12T00:55:17.131Z,956.62
2016-02-12T00:56:17.134Z,956.67
2016-02-12T00:57:17.121Z,956.68
2016-02-12T00:58:17.123Z,956.7
2016-02-12T00:59:17.127Z,956.69
2016-02-12T01:00:17.129Z,956.69
2016-02-12T01:01:17.132Z,956.7
2016-02-12T01:02:17.119Z,956.71
2016-02-12T01:03:17.130Z,956.67
2016-02-12T01:04:17.118Z,956.71
2016-02-12T01:05:17.120Z,956.68
2016-02-12T01:06:17.123Z,956.7
2016-02-12T01:07:17.126Z,956.73
2016-02-12T01:08:17.112Z,956.73
2016-02-12T01:09:17.115Z,956.72
2016-02-12T01:10:17.118Z,956.71
2016-02-12T01:11:17.107Z,956.71
2016-02-12T01:12:17.110Z,956.72
2016-02-12T01:13:17.116Z,956.72
2016-02-12T01:14:17.104Z,956.73
2016-02-12T01:15:17.107Z,956.76
2016-02-12T01:16:17.109Z,956.74
2016-02-12T01:17:17.096Z,956.76
2016-02-12T01:18:17.098Z,956.74
2016-02-12T01:19:17.101Z,956.75
2016-02-12T01:20:17.105Z,956.76
2016-02-12T01:21:17.091Z,956.76
2016-02-12T01:22:17.094Z,956.76
2016-02-12T01:23:17.097Z,956.78
2016-02-12T01:24:17.085Z,956.75
2016-02-12T01:25:17.087Z,956.79
2016-02-12T01:26:17.090Z,956.74
2016-02-12T01:27:17.092Z,956.76
2016-02-12T01:28:17.095Z,956.74
2016-02-12T01:29:17.082Z,956.79
2016-02-12T01:30:17.085Z,956.75
2016-02-12T01:31:17.072Z,956.78
2016-02-12T01:32:17.075Z,956.81
2016-02-12T01:33:17.078Z,956.78
2016-02-12T01:34:17.080Z,956.77
2016-02-12T01:35:17.084Z,956.8
2016-02-12T01:36:17.072Z,956.79
2016-02-12T01:37:17.074Z,956.79
2016-02-12T01:38:17.077Z,956.76
2016-02-12T01:39:17.064Z,956.81
2016-02-12T01:40:17.070Z,956.8
2016-02-12T01:41:17.072Z,956.82
2016-02-12T01:42:17.059Z,956.8
2016-02-12T01:43:17.065Z,956.83
2016-02-12T01:44:17.067Z,956.8
2016-02-12T01:45:17.070Z,956.78
2016-02-12T01:46:17.058Z,956.8
2016-02-12T01:47:17.061Z,956.76
2016-02-12T01:48:17.064Z,956.79
2016-02-12T01:49:17.051Z,956.74
2016-02-12T01:50:17.053Z,956.71
2016-02-12T01:51:17.056Z,956.69
2016-02-12T01:52:17.059Z,956.68
2016-02-12T01:53:17.046Z,956.66
2016-02-12T01:54:17.049Z,956.66
2016-02-12T01:55:17.052Z,956.67
2016-02-12T01:56:17.054Z,956.68
2016-02-12T01:57:17.042Z,956.7
2016-02-12T01:58:17.045Z,956.67
2016-02-12T01:59:17.047Z,956.64
2016-02-12T02:00:17.034Z,956.66
2016-02-12T02:01:17.037Z,956.67
2016-02-12T02:02:17.039Z,956.67
2016-02-12T02:03:17.042Z,956.67
2016-02-12T02:04:17.029Z,956.64
2016-02-12T02:05:17.032Z,956.65
2016-02-12T02:06:17.036Z,956.68
2016-02-12T02:07:17.039Z,956.65
2016-02-12T02:08:17.026Z,956.64
2016-02-12T02:09:17.028Z,956.61
2016-02-12T02:10:17.031Z,956.58
2016-02-12T02:11:17.018Z,956.59
2016-02-12T02:12:17.020Z,956.59
2016-02-12T02:13:17.024Z,956.56
2016-02-12T02:14:17.028Z,956.57
2016-02-12T02:15:17.016Z,956.58
2016-02-12T02:16:17.018Z,956.55
2016-02-12T02:17:17.021Z,956.55
2016-02-12T02:18:17.007Z,956.55
2016-02-12T02:19:17.010Z,956.53
2016-02-12T02:20:17.013Z,956.49
2016-02-12T02:21:17.016Z,956.48
2016-02-12T02:22:17.002Z,956.42
2016-02-12T02:23:17.005Z,956.38
2016-02-12T02:24:17.008Z,956.42
2016-02-12T02:25:17.010Z,956.42
2016-02-12T02:26:16.998Z,956.4
2016-02-12T02:27:17.016Z,956.45
2016-02-12T02:28:17.003Z,956.46
2016-02-12T02:30:16.993Z,956.48
2016-02-12T02:31:16.996Z,956.48
2016-02-12T02:32:16.998Z,956.47
2016-02-12T02:33:16.986Z,956.48
2016-02-12T02:34:16.989Z,956.45
2016-02-12T02:35:16.991Z,956.45
2016-02-12T02:36:16.994Z,956.46
2016-02-12T02:37:16.997Z,956.46
2016-02-12T02:38:16.983Z,956.49
2016-02-12T02:39:16.986Z,956.5
2016-02-12T02:40:16.990Z,956.5
2016-02-12T02:41:16.976Z,956.54
2016-02-12T02:42:16.979Z,956.48
2016-02-12T02:43:16.986Z,956.44
2016-02-12T02:44:16.973Z,956.42
2016-02-12T02:45:16.976Z,956.43
2016-02-12T02:46:16.979Z,956.4
2016-02-12T02:47:16.965Z,956.4
2016-02-12T02:48:16.968Z,956.36
2016-02-12T02:49:16.973Z,956.36
2016-02-12T02:50:16.976Z,956.4
2016-02-12T02:51:16.963Z,956.41
2016-02-12T02:52:16.966Z,956.41
2016-02-12T02:53:16.969Z,956.39
2016-02-12T02:54:16.956Z,956.36
2016-02-12T02:55:16.960Z,956.37
2016-02-12T02:56:16.962Z,956.35
2016-02-12T02:57:16.964Z,956.33
2016-02-12T02:58:16.951Z,956.24
2016-02-12T02:59:16.954Z,956.31
2016-02-12T03:00:16.958Z,956.23
2016-02-12T03:01:16.945Z,956.24
2016-02-12T03:02:16.948Z,956.23
2016-02-12T03:03:16.950Z,956.24
2016-02-12T03:04:16.953Z,956.25
2016-02-12T03:05:16.941Z,956.26
2016-02-12T03:06:16.944Z,956.27
2016-02-12T03:07:16.946Z,956.32
2016-02-12T03:08:16.949Z,956.33
2016-02-12T03:09:16.938Z,956.34
2016-02-12T03:10:16.940Z,956.36
2016-02-12T03:11:16.943Z,956.36
2016-02-12T03:12:16.935Z,956.33
2016-02-12T03:13:16.937Z,956.39
2016-02-12T03:14:16.926Z,956.42
2016-02-12T03:15:16.929Z,956.39
2016-02-12T03:16:16.931Z,956.45
2016-02-12T03:17:16.919Z,956.46
2016-02-12T03:18:16.922Z,956.42
2016-02-12T03:19:16.925Z,956.39
2016-02-12T03:20:16.927Z,956.47
2016-02-12T03:21:16.930Z,956.4
2016-02-12T03:22:16.917Z,956.4
2016-02-12T03:23:16.919Z,956.38
2016-02-12T03:24:16.922Z,956.33
2016-02-12T03:25:16.910Z,956.36
2016-02-12T03:26:16.912Z,956.38
2016-02-12T03:27:16.916Z,956.33
2016-02-12T03:28:16.918Z,956.34
2016-02-12T03:29:16.904Z,956.33
2016-02-12T03:30:16.907Z,956.27
2016-02-12T03:31:16.910Z,956.27
2016-02-12T03:32:16.912Z,956.27
2016-02-12T03:33:16.899Z,956.29
2016-02-12T03:34:16.903Z,956.33
2016-02-12T03:35:16.891Z,956.32
2016-02-12T03:36:16.893Z,956.32
2016-02-12T03:37:16.897Z,956.29
2016-02-12T03:38:16.900Z,956.28
2016-02-12T03:39:16.902Z,956.26
2016-02-12T03:40:16.889Z,956.28
2016-02-12T03:41:16.892Z,956.3
2016-02-12T03:42:16.894Z,956.27
2016-02-12T03:43:16.886Z,956.27
2016-02-12T03:44:16.888Z,956.28
2016-02-12T03:45:16.891Z,956.29
2016-02-12T03:46:16.878Z,956.33
2016-02-12T03:47:16.881Z,956.28
2016-02-12T03:48:16.883Z,956.31
2016-02-12T03:49:16.870Z,956.27
2016-02-12T03:50:16.872Z,956.31
2016-02-12T03:51:16.876Z,956.27
2016-02-12T03:52:16.878Z,956.26
2016-02-12T03:53:16.866Z,956.27
2016-02-12T03:54:16.869Z,956.28
2016-02-12T03:55:16.872Z,956.32
2016-02-12T03:56:16.875Z,956.22
2016-02-12T03:57:16.861Z,956.3
2016-02-12T03:58:16.864Z,956.31
2016-02-12T03:59:16.867Z,956.31
2016-02-12T04:00:16.853Z,956.35
2016-02-12T04:01:16.856Z,956.32
2016-02-12T04:02:16.858Z,956.36
2016-02-12T04:03:16.862Z,956.33
2016-02-12T04:04:16.865Z,956.37
2016-02-12T04:05:16.867Z,956.35
2016-02-12T04:06:16.855Z,956.35
2016-02-12T04:07:16.842Z,956.3
2016-02-12T04:08:16.844Z,956.29
2016-02-12T04:09:16.847Z,956.27
2016-02-12T04:10:16.850Z,956.28
2016-02-12T04:11:16.853Z,956.25
2016-02-12T04:12:16.845Z,956.23
2016-02-12T04:13:16.848Z,956.19
2016-02-12T04:14:16.836Z,956.22
2016-02-12T04:15:16.839Z,956.18
2016-02-12T04:16:16.841Z,956.21
2016-02-12T04:17:16.845Z,956.2
2016-02-12T04:18:16.831Z,956.18
2016-02-12T04:19:16.834Z,956.18
2016-02-12T04:20:16.839Z,956.21
2016-02-12T04:21:16.825Z,956.22
2016-02-12T04:22:16.828Z,956.17
2016-02-12T04:23:16.831Z,956.15
2016-02-12T04:24:16.818Z,956.1
2016-02-12T04:25:16.821Z,956.1
2016-02-12T04:26:16.824Z,956.1
2016-02-12T04:27:16.826Z,956.17
2016-02-12T04:28:16.813Z,956.12
2016-02-12T04:29:16.817Z,956.12
2016-02-12T04:30:16.821Z,956.14
2016-02-12T04:31:16.807Z,956.19
2016-02-12T04:32:16.809Z,956.16
2016-02-12T04:33:16.813Z,956.13
2016-02-12T04:34:16.800Z,956.13
2016-02-12T04:35:16.803Z,956.12
2016-02-12T04:36:16.806Z,956.12
2016-02-12T04:37:16.809Z,956.09
2016-02-12T04:38:16.796Z,956.09
2016-02-12T04:39:16.799Z,956.08
2016-02-12T04:40:16.804Z,956.05
2016-02-12T04:41:16.790Z,956.06
2016-02-12T04:42:16.793Z,956.03
2016-02-12T04:43:16.796Z,955.99
2016-02-12T04:44:16.799Z,955.95
2016-02-12T04:45:16.786Z,955.93
2016-02-12T04:46:16.791Z,955.89
2016-02-12T04:47:16.793Z,955.92
2016-02-12T04:48:16.780Z,955.93
2016-02-12T04:49:16.783Z,955.88
2016-02-12T04:50:16.786Z,955.93
2016-02-12T04:51:16.789Z,955.92
2016-02-12T04:52:16.777Z,955.86
2016-02-12T04:53:16.779Z,955.85
2016-02-12T04:54:16.782Z,955.9
2016-02-12T04:55:16.768Z,955.92
2016-02-12T04:56:16.772Z,955.92
2016-02-12T04:57:16.774Z,955.92
2016-02-12T04:58:16.776Z,955.91
2016-02-12T04:59:16.763Z,955.87
2016-02-12T05:00:16.766Z,955.88
2016-02-12T05:01:16.769Z,955.88
2016-02-12T05:02:16.772Z,955.85
2016-02-12T05:03:16.759Z,955.88
2016-02-12T05:04:16.777Z,955.86
2016-02-12T05:05:16.764Z,955.86
2016-02-12T05:06:16.769Z,955.85
2016-02-12T05:07:16.755Z,955.88
2016-02-12T05:08:16.757Z,955.85
2016-02-12T05:09:16.760Z,955.91
2016-02-12T05:10:16.747Z,955.94
2016-02-12T05:11:16.749Z,955.95
2016-02-12T05:12:16.758Z,955.97
2016-02-12T05:13:16.745Z,955.95
2016-02-12T05:14:16.748Z,955.92
2016-02-12T05:15:16.750Z,955.91
2016-02-12T05:16:16.737Z,955.89
2016-02-12T05:17:16.740Z,955.86
2016-02-12T05:18:16.743Z,955.84
2016-02-12T05:19:16.746Z,955.81
2016-02-12T05:20:16.749Z,955.81
2016-02-12T05:21:16.735Z,955.75
2016-02-12T05:22:16.739Z,955.76
2016-02-12T05:23:16.742Z,955.77
2016-02-12T05:24:16.730Z,955.76
2016-02-12T05:25:16.733Z,955.78
2016-02-12T05:26:16.735Z,955.76
2016-02-12T05:27:16.737Z,955.77
2016-02-12T05:28:16.725Z,955.76
2016-02-12T05:29:16.727Z,955.74
2016-02-12T05:30:16.730Z,955.67
2016-02-12T05:31:16.716Z,955.66
2016-02-12T05:32:16.719Z,955.63
2016-02-12T05:33:16.722Z,955.64
2016-02-12T05:34:16.725Z,955.63
2016-02-12T05:35:16.728Z,955.66
2016-02-12T05:36:16.715Z,955.61
2016-02-12T05:37:16.717Z,955.62
2016-02-12T05:38:16.705Z,955.63
2016-02-12T05:39:16.707Z,955.65
2016-02-12T05:40:16.712Z,955.63
2016-02-12T05:41:16.703Z,955.62
2016-02-12T05:42:16.705Z,955.63
2016-02-12T05:43:16.710Z,955.64
2016-02-12T05:44:16.712Z,955.7
2016-02-12T05:45:16.700Z,955.65
2016-02-12T05:46:16.703Z,955.64
2016-02-12T05:47:16.705Z,955.66
2016-02-12T05:48:16.692Z,955.62
2016-02-12T05:49:16.696Z,955.63
2016-02-12T05:50:16.698Z,955.59
2016-02-12T05:51:16.687Z,955.62
2016-02-12T05:52:16.704Z,955.56
2016-02-12T05:53:16.692Z,955.54
2016-02-12T05:54:16.694Z,955.51
2016-02-12T05:55:16.697Z,955.55
2016-02-12T05:56:16.684Z,955.54
2016-02-12T05:57:16.686Z,955.48
2016-02-12T05:58:16.676Z,955.5
2016-02-12T05:59:16.679Z,955.51
2016-02-12T06:00:16.669Z,955.49
2016-02-12T06:01:16.687Z,955.47
2016-02-12T06:02:16.675Z,955.44
2016-02-12T06:03:16.677Z,955.42
2016-02-12T06:04:16.680Z,955.43
2016-02-12T06:05:16.667Z,955.39
2016-02-12T06:06:16.670Z,955.39
2016-02-12T06:07:16.672Z,955.4
2016-02-12T06:08:16.659Z,955.38
2016-02-12T06:09:16.662Z,955.37
2016-02-12T06:10:16.664Z,955.34
2016-02-12T06:11:16.656Z,955.35
2016-02-12T06:12:16.659Z,955.38
2016-02-12T06:13:16.661Z,955.37
2016-02-12T06:14:16.664Z,955.39
2016-02-12T06:15:16.651Z,955.4
2016-02-12T06:16:16.653Z,955.39
2016-02-12T06:17:16.656Z,955.39
2016-02-12T06:18:16.644Z,955.43
2016-02-12T06:19:16.646Z,955.41
2016-02-12T06:20:16.649Z,955.37
2016-02-12T06:21:16.651Z,955.38
2016-02-12T06:22:16.640Z,955.38
2016-02-12T06:23:16.642Z,955.41
2016-02-12T06:24:16.645Z,955.4
2016-02-12T06:25:16.632Z,955.39
2016-02-12T06:26:16.635Z,955.39
2016-02-12T06:27:16.638Z,955.39
2016-02-12T06:28:16.641Z,955.39
2016-02-12T06:29:16.643Z,955.39
2016-02-12T06:30:16.630Z,955.37
2016-02-12T06:31:16.633Z,955.36
2016-02-12T06:32:16.621Z,955.37
2016-02-12T06:33:16.623Z,955.39
2016-02-12T06:34:16.626Z,955.33
2016-02-12T06:35:16.631Z,955.33
2016-02-12T06:36:16.618Z,955.35
2016-02-12T06:37:16.620Z,955.32
2016-02-12T06:38:16.623Z,955.28
2016-02-12T06:39:16.626Z,955.23
2016-02-12T06:40:16.612Z,955.28
2016-02-12T06:41:16.616Z,955.26
2016-02-12T06:42:16.603Z,955.29
2016-02-12T06:43:16.609Z,955.27
2016-02-12T06:44:16.611Z,955.27
2016-02-12T06:45:16.615Z,955.22
2016-02-12T06:46:16.601Z,955.24
2016-02-12T06:47:16.604Z,955.2
2016-02-12T06:48:16.607Z,955.22
2016-02-12T06:49:16.593Z,955.15
2016-02-12T06:50:16.596Z,955.13
2016-02-12T06:51:16.599Z,955.13
2016-02-12T06:52:16.603Z,955.06
2016-02-12T06:53:16.590Z,955.08
2016-02-12T06:54:16.593Z,955.02
2016-02-12T06:55:16.596Z,955.05
2016-02-12T06:56:16.583Z,954.98
2016-02-12T06:57:16.586Z,954.93
2016-02-12T06:58:16.588Z,954.9
2016-02-12T06:59:16.576Z,954.92
2016-02-12T07:00:16.578Z,954.89
2016-02-12T07:01:16.583Z,954.91
2016-02-12T07:02:16.585Z,954.9
2016-02-12T07:03:16.572Z,954.84
2016-02-12T07:04:16.575Z,954.82
2016-02-12T07:05:16.578Z,954.81
2016-02-12T07:06:16.565Z,954.77
2016-02-12T07:07:16.568Z,954.78
2016-02-12T07:08:16.570Z,954.78
2016-02-12T07:09:16.574Z,954.77
2016-02-12T07:10:16.561Z,954.74
2016-02-12T07:11:16.565Z,954.73
2016-02-12T07:12:16.571Z,954.72
2016-02-12T07:13:16.557Z,954.66
2016-02-12T07:14:16.561Z,954.63
2016-02-12T07:15:16.563Z,954.64
2016-02-12T07:16:16.549Z,954.61
2016-02-12T07:17:16.553Z,954.64
2016-02-12T07:18:16.555Z,954.69
2016-02-12T07:19:16.558Z,954.65
2016-02-12T07:20:16.545Z,954.67
2016-02-12T07:21:16.548Z,954.63
2016-02-12T07:22:16.551Z,954.65
2016-02-12T07:23:16.553Z,954.66
2016-02-12T07:24:16.540Z,954.64
2016-02-12T07:25:16.543Z,954.6
2016-02-12T07:26:16.545Z,954.64
2016-02-12T07:27:16.533Z,954.6
2016-02-12T07:28:16.535Z,954.6
2016-02-12T07:29:16.538Z,954.61
2016-02-12T07:30:16.540Z,954.57
2016-02-12T07:31:16.528Z,954.56
2016-02-12T07:32:16.531Z,954.54
2016-02-12T07:33:16.533Z,954.53
2016-02-12T07:34:16.537Z,954.49
2016-02-12T07:35:16.523Z,954.51
2016-02-12T07:36:16.525Z,954.47
2016-02-12T07:37:16.528Z,954.5
2016-02-12T07:38:16.516Z,954.5
2016-02-12T07:39:16.518Z,954.52
2016-02-12T07:40:16.522Z,954.52
2016-02-12T07:41:16.525Z,954.52
2016-02-12T07:42:16.512Z,954.5
2016-02-12T07:43:16.515Z,954.48
2016-02-12T07:44:16.518Z,954.46
2016-02-12T07:45:16.505Z,954.45
2016-02-12T07:46:16.508Z,954.41
2016-02-12T07:47:16.511Z,954.37
2016-02-12T07:48:16.514Z,954.34
2016-02-12T07:49:16.516Z,954.25
2016-02-12T07:50:16.505Z,954.19
2016-02-12T07:51:16.507Z,954.18
2016-02-12T07:52:16.493Z,954.18
2016-02-12T07:53:16.496Z,954.18
2016-02-12T07:54:16.499Z,954.09
2016-02-12T07:55:16.503Z,954.06
2016-02-12T07:56:16.505Z,954.06
2016-02-12T07:57:16.492Z,954.07
2016-02-12T07:58:16.495Z,954.02
2016-02-12T07:59:16.497Z,953.98
2016-02-12T08:00:16.485Z,953.96
2016-02-12T08:01:16.488Z,953.95
2016-02-12T08:02:16.490Z,953.92
2016-02-12T08:03:16.493Z,953.94
2016-02-12T08:04:16.482Z,953.87
2016-02-12T08:05:16.484Z,953.85
2016-02-12T08:06:16.487Z,953.87
2016-02-12T08:07:16.490Z,953.82
2016-02-12T08:08:16.477Z,953.83
2016-02-12T08:09:16.479Z,953.85
2016-02-12T08:10:16.482Z,953.82
2016-02-12T08:11:16.485Z,953.79
2016-02-12T08:12:16.473Z,953.76
2016-02-12T08:13:16.479Z,953.75
2016-02-12T08:14:16.466Z,953.73
2016-02-12T08:15:16.469Z,953.66
2016-02-12T08:16:16.472Z,953.6
2016-02-12T08:17:16.475Z,953.56
2016-02-12T08:18:16.477Z,953.53
2016-02-12T08:19:16.464Z,953.48
2016-02-12T08:20:16.467Z,953.5
2016-02-12T08:21:16.471Z,953.47
2016-02-12T08:22:16.474Z,953.49
2016-02-12T08:23:16.477Z,953.42
2016-02-12T08:24:16.468Z,953.45
2016-02-12T08:25:16.470Z,953.43
2016-02-12T08:26:16.457Z,953.4
2016-02-12T08:27:16.459Z,953.41
2016-02-12T08:28:16.478Z,953.34
2016-02-12T08:29:16.464Z,953.34
2016-02-12T08:30:16.462Z,953.35
2016-02-12T08:31:16.465Z,953.39
2016-02-12T08:32:16.468Z,953.41
2016-02-12T08:33:16.455Z,953.41
2016-02-12T08:34:16.459Z,953.35
2016-02-12T08:35:16.461Z,953.37
2016-02-12T08:36:16.464Z,953.35
2016-02-12T08:37:16.467Z,953.34
2016-02-12T08:38:16.469Z,953.32
2016-02-12T08:39:16.456Z,953.35
2016-02-12T08:40:16.459Z,953.29
2016-02-12T08:41:16.466Z,953.29
2016-02-12T08:42:16.469Z,953.26
2016-02-12T08:43:16.456Z,953.26
2016-02-12T08:44:16.460Z,953.26
2016-02-12T08:45:16.463Z,953.26
2016-02-12T08:46:16.466Z,953.22
2016-02-12T08:47:16.452Z,953.26
2016-02-12T08:48:16.456Z,953.18
2016-02-12T08:49:16.458Z,953.19
2016-02-12T08:50:16.463Z,953.15
2016-02-12T08:51:16.465Z,953.13
2016-02-12T08:52:16.468Z,953.12
2016-02-12T08:53:16.456Z,953.13
2016-02-12T08:54:16.458Z,953.11
2016-02-12T08:55:16.461Z,953.11
2016-02-12T08:56:16.464Z,953.08
2016-02-12T08:57:16.466Z,953.08
2016-02-12T08:58:16.470Z,953.06
2016-02-12T08:59:16.457Z,953.1
2016-02-12T09:00:16.459Z,953.07
2016-02-12T09:01:16.462Z,953.04
2016-02-12T09:02:16.465Z,952.99
2016-02-12T09:03:16.467Z,953.02
2016-02-12T09:04:16.470Z,952.95
2016-02-12T09:05:16.462Z,952.97
2016-02-12T09:06:16.465Z,952.94
2016-02-12T09:07:16.467Z,952.93
2016-02-12T09:08:16.470Z,952.92
2016-02-12T09:09:16.473Z,952.89
2016-02-12T09:10:16.460Z,952.9
2016-02-12T09:11:16.478Z,952.83
2016-02-12T09:12:16.469Z,952.83
2016-02-12T09:13:16.471Z,952.84
2016-02-12T09:14:16.474Z,952.82
2016-02-12T09:15:16.478Z,952.77
2016-02-12T09:16:16.465Z,952.74
2016-02-12T09:17:16.467Z,952.75
2016-02-12T09:18:16.469Z,952.68
2016-02-12T09:19:16.473Z,952.7
2016-02-12T09:20:16.476Z,952.7
2016-02-12T09:21:16.479Z,952.68
2016-02-12T09:22:16.482Z,952.67
2016-02-12T09:23:16.468Z,952.64
2016-02-12T09:24:16.473Z,952.6
2016-02-12T09:25:16.476Z,952.54
2016-02-12T09:26:16.478Z,952.5
2016-02-12T09:27:16.467Z,952.48
2016-02-12T09:28:16.485Z,952.49
2016-02-12T09:29:16.469Z,952.39
2016-02-12T09:30:16.460Z,952.35
2016-02-12T09:31:16.449Z,952.35
2016-02-12T09:32:16.439Z,952.24
2016-02-12T09:33:16.436Z,952.28
2016-02-12T09:34:16.411Z,952.2
2016-02-12T09:35:16.410Z,952.2
2016-02-12T09:36:16.408Z,952.19
2016-02-12T09:37:16.405Z,952.15
2016-02-12T09:38:16.403Z,952.15
2016-02-12T09:39:16.387Z,952.12
2016-02-12T09:40:16.387Z,952.09
2016-02-12T09:41:16.389Z,952.08
2016-02-12T09:42:16.391Z,952.06
2016-02-12T09:43:16.392Z,952.07
2016-02-12T09:44:16.394Z,952.01
2016-02-12T09:45:16.397Z,952.01
2016-02-12T09:46:16.398Z,951.98
2016-02-12T09:47:16.385Z,951.98
2016-02-12T09:48:16.387Z,951.97
2016-02-12T09:49:16.389Z,951.93
2016-02-12T09:50:16.392Z,951.92
2016-02-12T09:51:16.395Z,951.95
2016-02-12T09:52:16.384Z,951.91
2016-02-12T09:53:16.387Z,951.89
2016-02-12T09:54:16.390Z,951.9
2016-02-12T09:55:16.393Z,951.88
2016-02-12T09:56:16.396Z,951.85
2016-02-12T09:57:16.382Z,951.84
2016-02-12T09:58:16.400Z,951.82
2016-02-12T09:59:16.387Z,951.83
2016-02-12T10:00:16.422Z,951.78
2016-02-12T10:01:16.393Z,951.77
2016-02-12T10:02:16.396Z,951.78
2016-02-12T10:03:16.396Z,951.8
2016-02-12T10:04:16.398Z,951.82
2016-02-12T10:05:16.388Z,951.79
2016-02-12T10:06:16.390Z,951.76
2016-02-12T10:07:16.393Z,951.73
2016-02-12T10:08:16.396Z,951.76
2016-02-12T10:09:16.413Z,951.73
2016-02-12T10:10:16.403Z,951.67
2016-02-12T10:11:16.407Z,951.72
2016-02-12T10:12:16.409Z,951.67
2016-02-12T10:13:16.400Z,951.68
2016-02-12T10:14:16.419Z,951.67
2016-02-12T10:15:16.405Z,951.66
2016-02-12T10:16:16.408Z,951.65
2016-02-12T10:17:16.395Z,951.65
2016-02-12T10:18:16.398Z,951.63
2016-02-12T10:19:16.401Z,951.69
2016-02-12T10:20:16.404Z,951.63
2016-02-12T10:21:16.406Z,951.63
2016-02-12T10:22:16.409Z,951.6
2016-02-12T10:23:16.412Z,951.64
2016-02-12T10:24:16.415Z,951.63
2016-02-12T10:25:16.403Z,951.55
2016-02-12T10:26:16.405Z,951.56
2016-02-12T10:27:16.410Z,951.54
2016-02-12T10:28:16.412Z,951.53
2016-02-12T10:29:16.415Z,951.53
2016-02-12T10:30:16.418Z,951.49
2016-02-12T10:31:16.404Z,951.5
2016-02-12T10:32:16.407Z,951.45
2016-02-12T10:33:16.410Z,951.4
2016-02-12T10:34:16.412Z,951.37
2016-02-12T10:35:16.415Z,951.32
2016-02-12T10:36:16.419Z,951.33
2016-02-12T10:37:16.422Z,951.29
2016-02-12T10:38:16.408Z,951.26
2016-02-12T10:39:16.413Z,951.26
2016-02-12T10:40:16.415Z,951.15
2016-02-12T10:41:16.418Z,951.1
2016-02-12T10:42:16.421Z,951.07
2016-02-12T10:43:16.414Z,951.09
2016-02-12T10:44:16.416Z,951.05
2016-02-12T10:45:16.450Z,950.98
2016-02-12T10:46:16.421Z,950.97
2016-02-12T10:47:16.415Z,950.95
2016-02-12T10:48:16.417Z,950.9
2016-02-12T10:49:16.419Z,950.88
2016-02-12T10:50:16.423Z,950.88
2016-02-12T10:51:16.425Z,950.86
2016-02-12T10:52:16.412Z,950.83
2016-02-12T10:53:16.431Z,950.79
2016-02-12T10:54:16.417Z,950.77
2016-02-12T10:55:16.420Z,950.7
2016-02-12T10:56:16.423Z,950.67
2016-02-12T10:57:16.425Z,950.62
2016-02-12T10:58:16.413Z,950.55
2016-02-12T10:59:16.416Z,950.54
2016-02-12T11:00:16.418Z,950.54
2016-02-12T11:01:16.421Z,950.51
2016-02-12T11:02:16.424Z,950.51
2016-02-12T11:03:16.426Z,950.5
2016-02-12T11:04:16.414Z,950.45
2016-02-12T11:05:16.417Z,950.4
2016-02-12T11:06:16.419Z,950.35
2016-02-12T11:07:16.422Z,950.32
2016-02-12T11:08:16.424Z,950.27
2016-02-12T11:09:16.427Z,950.21
2016-02-12T11:10:16.414Z,950.19
2016-02-12T11:11:16.417Z,950.17
2016-02-12T11:12:16.419Z,950.1
2016-02-12T11:13:16.424Z,950.08
2016-02-12T11:14:16.414Z,950.07
2016-02-12T11:15:16.416Z,950
2016-02-12T11:16:16.420Z,949.98
2016-02-12T11:17:16.422Z,949.97
2016-02-12T11:18:16.425Z,949.96
2016-02-12T11:19:16.427Z,950
2016-02-12T11:20:16.415Z,949.95
2016-02-12T11:21:16.417Z,949.92
2016-02-12T11:22:16.421Z,949.88
2016-02-12T11:23:16.424Z,949.84
2016-02-12T11:24:16.426Z,949.78
2016-02-12T11:25:16.413Z,949.77
2016-02-12T11:26:16.416Z,949.76
2016-02-12T11:27:16.418Z,949.68
2016-02-12T11:28:16.421Z,949.66
2016-02-12T11:29:16.423Z,949.6
2016-02-12T11:30:16.416Z,949.53
2016-02-12T11:31:16.419Z,949.5
2016-02-12T11:32:16.422Z,949.47
2016-02-12T11:33:16.424Z,949.44
2016-02-12T11:34:16.427Z,949.43
2016-02-12T11:35:16.414Z,949.43
2016-02-12T11:36:16.416Z,949.43
2016-02-12T11:37:16.419Z,949.43
2016-02-12T11:38:16.422Z,949.4
2016-02-12T11:39:16.427Z,949.37
2016-02-12T11:40:16.411Z,949.36
2016-02-12T11:41:16.414Z,949.36
2016-02-12T11:42:16.417Z,949.31
2016-02-12T11:43:16.420Z,949.3
2016-02-12T11:44:16.411Z,949.29
2016-02-12T11:45:16.414Z,949.26
2016-02-12T11:46:16.417Z,949.22
2016-02-12T11:47:16.420Z,949.21
2016-02-12T11:48:16.422Z,949.18
2016-02-12T11:49:16.425Z,949.16
2016-02-12T11:50:16.412Z,949.13
2016-02-12T11:51:16.416Z,949.13
2016-02-12T11:52:16.419Z,949.07
2016-02-12T11:53:16.421Z,949.05
2016-02-12T11:54:16.424Z,949.04
2016-02-12T11:55:16.411Z,949.04
2016-02-12T11:56:16.416Z,948.99
2016-02-12T11:57:16.418Z,948.97
2016-02-12T11:58:16.421Z,948.97
2016-02-12T11:59:16.410Z,948.98
2016-02-12T12:00:16.412Z,948.91
2016-02-12T12:01:16.415Z,948.91
2016-02-12T12:02:16.418Z,948.87
2016-02-12T12:03:16.421Z,948.87
2016-02-12T12:04:16.423Z,948.83
2016-02-12T12:05:16.412Z,948.85
2016-02-12T12:06:16.415Z,948.79
2016-02-12T12:07:16.417Z,948.77
2016-02-12T12:08:16.421Z,948.82
2016-02-12T12:09:16.408Z,948.8
2016-02-12T12:10:16.411Z,948.79
2016-02-12T12:11:16.413Z,948.79
2016-02-12T12:12:16.416Z,948.77
2016-02-12T12:13:16.418Z,948.7
2016-02-12T12:14:16.406Z,948.65
2016-02-12T12:15:16.409Z,948.64
2016-02-12T12:16:16.413Z,948.62
2016-02-12T12:17:16.417Z,948.56
2016-02-12T12:18:16.419Z,948.5
2016-02-12T12:19:16.422Z,948.49
2016-02-12T12:20:16.409Z,948.44
2016-02-12T12:21:16.412Z,948.36
2016-02-12T12:22:16.414Z,948.37
2016-02-12T12:23:16.417Z,948.35
2016-02-12T12:24:16.420Z,948.3
2016-02-12T12:25:16.423Z,948.23
2016-02-12T12:26:16.410Z,948.2
2016-02-12T12:27:16.428Z,948.23
2016-02-12T12:28:16.415Z,948.19
2016-02-12T12:29:16.418Z,948.18
2016-02-12T12:30:16.420Z,948.13
2016-02-12T12:31:16.424Z,948.08
2016-02-12T12:32:16.412Z,948.03